PWSweather.com
Personal Weather Stations
Station Observations
NORTHPOLE1
Tombur Subdivision, North Pole, AK 99705

Tombur SubdivisionNorth Pole, AK 99705

Lat: 64.774039, Lon: -147.284862

Elevation: 434

Station Type: Davis Vantage Pro 2

http://kl7ac.com

Latest ConditionsUpdated 6:55:00 PM AKST Tuesday, Sep 30, 2014
Currently Today's Max Today's Min Today's Average
Temperature 36.6°F2.6°C 37.2°F2.9°C 36.2°F2.3°C 36.7°F2.6°C
Dew Point 30.4°F-0.9°C 33.1°F0.6°C 30.1°F-1.1°C 31.8°F-0.1°C
Winds 3.0 mph WSW4.8 kmh WSW 9.0 mph WSW14.5 kmh WSW - 5.1 mph 8.2 kmh
Wind Gusts 11.0 mph17.7 kmh 22.0 mph35.4 kmh - -
Humidity 78% 88% 77% 82%
Pressure 30.18 in1022.0 mb 30.18 in1022.0 mb 30.11 in1019.6 mb -
Precipitation - 0.01 in0.3 mm - -
Hour Temp Dew Point Humidity Winds Wind Gusts Pressure Precip Precip Rate Daily Precip Total
02:55 PM 37.2°F2.9°C 33.1°F0.6°C 85% 9.0 mph WSW14.5 kmh WSW 20.0 mph32.2 kmh 30.11 in1019.6 mb 0.00 in0.0 mm 0.00 in/hr0.0 mm/hr 0.01 in0.3 mm
02:50 PM 37.1°F2.8°C 33.0°F0.6°C 85% 9.0 mph WSW14.5 kmh WSW 21.0 mph33.8 kmh 30.11 in1019.6 mb 0.00 in0.0 mm 0.00 in/hr0.0 mm/hr 0.01 in0.3 mm
02:45 PM 37.1°F2.8°C 33.0°F0.6°C 85% 11.0 mph WSW17.7 kmh WSW 21.0 mph33.8 kmh 30.11 in1019.6 mb 0.00 in0.0 mm 0.00 in/hr0.0 mm/hr 0.01 in0.3 mm
02:40 PM 37.1°F2.8°C 33.0°F0.6°C 85% 10.0 mph WSW16.1 kmh WSW 19.0 mph30.6 kmh 30.11 in1019.6 mb 0.00 in0.0 mm 0.00 in/hr0.0 mm/hr 0.01 in0.3 mm
02:35 PM 37.1°F2.8°C 33.3°F0.7°C 86% 10.0 mph WSW16.1 kmh WSW 20.0 mph32.2 kmh 30.11 in1019.6 mb 0.00 in0.0 mm 0.00 in/hr0.0 mm/hr 0.01 in0.3 mm
02:30 PM 37.0°F2.8°C 33.2°F0.7°C 86% 11.0 mph WSW17.7 kmh WSW 22.0 mph35.4 kmh 30.11 in1019.6 mb 0.00 in0.0 mm 0.00 in/hr0.0 mm/hr 0.01 in0.3 mm
02:25 PM 37.0°F2.8°C 33.2°F0.7°C 86% 11.0 mph WSW17.7 kmh WSW 26.0 mph41.8 kmh 30.10 in1019.3 mb 0.00 in0.0 mm 0.00 in/hr0.0 mm/hr 0.01 in0.3 mm
02:20 PM 37.0°F2.8°C 33.2°F0.7°C 86% 11.0 mph WSW17.7 kmh WSW 26.0 mph41.8 kmh 30.10 in1019.3 mb 0.00 in0.0 mm 0.00 in/hr0.0 mm/hr 0.01 in0.3 mm
02:15 PM 37.0°F2.8°C 33.2°F0.7°C 86% 9.0 mph WSW14.5 kmh WSW 19.0 mph30.6 kmh 30.10 in1019.3 mb 0.00 in0.0 mm 0.00 in/hr0.0 mm/hr 0.01 in0.3 mm
02:10 PM 37.0°F2.8°C 33.5°F0.8°C 87% 8.0 mph WSW12.9 kmh WSW 19.0 mph30.6 kmh 30.10 in1019.3 mb 0.00 in0.0 mm 0.00 in/hr0.0 mm/hr 0.01 in0.3 mm
02:05 PM 36.9°F2.7°C 33.4°F0.8°C 87% 9.0 mph WSW14.5 kmh WSW 24.0 mph38.6 kmh 30.10 in1019.3 mb 0.00 in0.0 mm 0.00 in/hr0.0 mm/hr 0.01 in0.3 mm
02:00 PM 36.8°F2.7°C 33.6°F0.9°C 88% 10.0 mph WSW16.1 kmh WSW 24.0 mph38.6 kmh 30.09 in1019.0 mb 0.00 in0.0 mm 0.00 in/hr0.0 mm/hr 0.01 in0.3 mm
01:55 PM 36.8°F2.7°C 33.6°F0.9°C 88% 10.0 mph WSW16.1 kmh WSW 21.0 mph33.8 kmh 30.09 in1019.0 mb 0.00 in0.0 mm 0.00 in/hr0.0 mm/hr 0.01 in0.3 mm
01:50 PM 36.8°F2.7°C 33.6°F0.9°C 88% 10.0 mph WSW16.1 kmh WSW 21.0 mph33.8 kmh 30.09 in1019.0 mb 0.00 in0.0 mm 0.00 in/hr0.0 mm/hr 0.01 in0.3 mm
01:45 PM 36.7°F2.6°C 33.8°F1.0°C 89% 9.0 mph WSW14.5 kmh WSW 20.0 mph32.2 kmh 30.09 in1019.0 mb 0.00 in0.0 mm 0.00 in/hr0.0 mm/hr 0.01 in0.3 mm
01:40 PM 36.7°F2.6°C 33.5°F0.8°C 88% 10.0 mph WSW16.1 kmh WSW 21.0 mph33.8 kmh 30.09 in1019.0 mb 0.00 in0.0 mm 0.00 in/hr0.0 mm/hr 0.01 in0.3 mm
01:35 PM 36.8°F2.7°C 33.6°F0.9°C 88% 9.0 mph WSW14.5 kmh WSW 21.0 mph33.8 kmh 30.09 in1019.0 mb 0.00 in0.0 mm 0.00 in/hr0.0 mm/hr 0.01 in0.3 mm
01:30 PM 36.8°F2.7°C 33.9°F1.1°C 89% 9.0 mph WSW14.5 kmh WSW 21.0 mph33.8 kmh 30.09 in1019.0 mb 0.00 in0.0 mm 0.00 in/hr0.0 mm/hr 0.01 in0.3 mm
01:25 PM 36.8°F2.7°C 33.9°F1.1°C 89% 9.0 mph WSW14.5 kmh WSW 19.0 mph30.6 kmh 30.09 in1019.0 mb 0.00 in0.0 mm 0.00 in/hr0.0 mm/hr 0.01 in0.3 mm
01:20 PM 36.8°F2.7°C 33.9°F1.1°C 89% 9.0 mph WSW14.5 kmh WSW 19.0 mph30.6 kmh 30.08 in1018.6 mb 0.00 in0.0 mm 0.00 in/hr0.0 mm/hr 0.01 in0.3 mm
01:15 PM 36.7°F2.6°C 33.8°F1.0°C 89% 10.0 mph WSW16.1 kmh WSW 19.0 mph30.6 kmh 30.08 in1018.6 mb 0.00 in0.0 mm 0.00 in/hr0.0 mm/hr 0.01 in0.3 mm
01:10 PM 36.6°F2.6°C 33.9°F1.1°C 90% 10.0 mph WSW16.1 kmh WSW 19.0 mph30.6 kmh 30.08 in1018.6 mb 0.00 in0.0 mm 0.00 in/hr0.0 mm/hr 0.01 in0.3 mm
01:05 PM 36.4°F2.4°C 33.7°F0.9°C 90% 9.0 mph WSW14.5 kmh WSW 19.0 mph30.6 kmh 30.08 in1018.6 mb 0.00 in0.0 mm 0.00 in/hr0.0 mm/hr 0.01 in0.3 mm
01:00 PM 36.4°F2.4°C 34.0°F1.1°C 91% 7.0 mph WSW11.3 kmh WSW 17.0 mph27.4 kmh 30.08 in1018.6 mb 0.00 in0.0 mm 0.00 in/hr0.0 mm/hr 0.01 in0.3 mm
12:55 PM 36.3°F2.4°C 33.9°F1.1°C 91% 8.0 mph WSW12.9 kmh WSW 16.0 mph25.7 kmh 30.08 in1018.6 mb 0.00 in0.0 mm 0.00 in/hr0.0 mm/hr 0.01 in0.3 mm
12:50 PM 36.2°F2.3°C 33.8°F1.0°C 91% 8.0 mph WSW12.9 kmh WSW 24.0 mph38.6 kmh 30.08 in1018.6 mb 0.00 in0.0 mm 0.00 in/hr0.0 mm/hr 0.01 in0.3 mm
12:45 PM 36.3°F2.4°C 33.9°F1.1°C 91% 8.0 mph WSW12.9 kmh WSW 24.0 mph38.6 kmh 30.08 in1018.6 mb 0.00 in0.0 mm 0.00 in/hr0.0 mm/hr 0.01 in0.3 mm
12:40 PM 36.3°F2.4°C 33.9°F1.1°C 91% 8.0 mph WSW12.9 kmh WSW 20.0 mph32.2 kmh 30.08 in1018.6 mb 0.00 in0.0 mm 0.00 in/hr0.0 mm/hr 0.01 in0.3 mm
12:35 PM 36.3°F2.4°C 33.9°F1.1°C 91% 8.0 mph WSW12.9 kmh WSW 20.0 mph32.2 kmh 30.08 in1018.6 mb 0.00 in0.0 mm 0.00 in/hr0.0 mm/hr 0.01 in0.3 mm
12:30 PM 36.3°F2.4°C 33.9°F1.1°C 91% 10.0 mph WSW16.1 kmh WSW 23.0 mph37.0 kmh 30.07 in1018.3 mb 0.00 in0.0 mm 0.00 in/hr0.0 mm/hr 0.01 in0.3 mm
12:25 PM 36.3°F2.4°C 33.9°F1.1°C 91% 11.0 mph WSW17.7 kmh WSW 24.0 mph38.6 kmh 30.07 in1018.3 mb 0.00 in0.0 mm 0.00 in/hr0.0 mm/hr 0.01 in0.3 mm
12:20 PM 36.3°F2.4°C 33.9°F1.1°C 91% 9.0 mph WSW14.5 kmh WSW 24.0 mph38.6 kmh 30.07 in1018.3 mb 0.00 in0.0 mm 0.00 in/hr0.0 mm/hr 0.01 in0.3 mm
12:15 PM 36.2°F2.3°C 34.1°F1.2°C 92% 9.0 mph WSW14.5 kmh WSW 22.0 mph35.4 kmh 30.07 in1018.3 mb 0.00 in0.0 mm 0.00 in/hr0.0 mm/hr 0.01 in0.3 mm
12:10 PM 36.0°F2.2°C 33.6°F0.9°C 91% 11.0 mph WSW17.7 kmh WSW 23.0 mph37.0 kmh 30.07 in1018.3 mb 0.00 in0.0 mm 0.00 in/hr0.0 mm/hr 0.01 in0.3 mm
12:05 PM 35.9°F2.2°C 33.5°F0.8°C 91% 10.0 mph WSW16.1 kmh WSW 23.0 mph37.0 kmh 30.07 in1018.3 mb 0.00 in0.0 mm 0.00 in/hr0.0 mm/hr 0.01 in0.3 mm
12:00 PM 35.8°F2.1°C 33.4°F0.8°C 91% 9.0 mph WSW14.5 kmh WSW 22.0 mph35.4 kmh 30.07 in1018.3 mb 0.00 in0.0 mm 0.00 in/hr0.0 mm/hr 0.01 in0.3 mm
11:55 AM 35.8°F2.1°C 33.7°F0.9°C 92% 9.0 mph WSW14.5 kmh WSW 22.0 mph35.4 kmh 30.07 in1018.3 mb 0.00 in0.0 mm 0.00 in/hr0.0 mm/hr 0.01 in0.3 mm
11:50 AM 35.7°F2.1°C 33.6°F0.9°C 92% 10.0 mph WSW16.1 kmh WSW 23.0 mph37.0 kmh 30.07 in1018.3 mb 0.00 in0.0 mm 0.00 in/hr0.0 mm/hr 0.01 in0.3 mm
11:45 AM 35.7°F2.1°C 33.6°F0.9°C 92% 10.0 mph WSW16.1 kmh WSW 23.0 mph37.0 kmh 30.06 in1017.9 mb 0.00 in0.0 mm 0.00 in/hr0.0 mm/hr 0.01 in0.3 mm
11:40 AM 35.7°F2.1°C 33.6°F0.9°C 92% 9.0 mph WSW14.5 kmh WSW 23.0 mph37.0 kmh 30.06 in1017.9 mb 0.00 in0.0 mm 0.00 in/hr0.0 mm/hr 0.01 in0.3 mm
11:35 AM 35.7°F2.1°C 33.9°F1.1°C 93% 8.0 mph WSW12.9 kmh WSW 23.0 mph37.0 kmh 30.06 in1017.9 mb 0.00 in0.0 mm 0.00 in/hr0.0 mm/hr 0.01 in0.3 mm
11:30 AM 35.6°F2.0°C 33.8°F1.0°C 93% 8.0 mph WSW12.9 kmh WSW 19.0 mph30.6 kmh 30.06 in1017.9 mb 0.00 in0.0 mm 0.00 in/hr0.0 mm/hr 0.01 in0.3 mm
11:25 AM 35.6°F2.0°C 33.8°F1.0°C 93% 9.0 mph WSW14.5 kmh WSW 20.0 mph32.2 kmh 30.06 in1017.9 mb 0.00 in0.0 mm 0.00 in/hr0.0 mm/hr 0.01 in0.3 mm
11:20 AM 35.5°F1.9°C 33.7°F0.9°C 93% 8.0 mph WSW12.9 kmh WSW 20.0 mph32.2 kmh 30.06 in1017.9 mb 0.00 in0.0 mm 0.00 in/hr0.0 mm/hr 0.01 in0.3 mm
11:15 AM 35.5°F1.9°C 33.7°F0.9°C 93% 8.0 mph WSW12.9 kmh WSW 21.0 mph33.8 kmh 30.06 in1017.9 mb 0.00 in0.0 mm 0.00 in/hr0.0 mm/hr 0.01 in0.3 mm
11:10 AM 35.3°F1.8°C 33.5°F0.8°C 93% 10.0 mph WSW16.1 kmh WSW 23.0 mph37.0 kmh 30.06 in1017.9 mb 0.00 in0.0 mm 0.00 in/hr0.0 mm/hr 0.01 in0.3 mm
11:05 AM 35.2°F1.8°C 33.4°F0.8°C 93% 10.0 mph WSW16.1 kmh WSW 23.0 mph37.0 kmh 30.06 in1017.9 mb 0.00 in0.0 mm 0.00 in/hr0.0 mm/hr 0.01 in0.3 mm
11:00 AM 35.0°F1.7°C 33.2°F0.7°C 93% 9.0 mph WSW14.5 kmh WSW 19.0 mph30.6 kmh 30.06 in1017.9 mb 0.00 in0.0 mm 0.00 in/hr0.0 mm/hr 0.01 in0.3 mm
10:55 AM 35.0°F1.7°C 33.2°F0.7°C 93% 8.0 mph WSW12.9 kmh WSW 17.0 mph27.4 kmh 30.05 in1017.6 mb 0.00 in0.0 mm 0.00 in/hr0.0 mm/hr 0.01 in0.3 mm
10:50 AM 34.9°F1.6°C 33.3°F0.7°C 94% 9.0 mph WSW14.5 kmh WSW 22.0 mph35.4 kmh 30.05 in1017.6 mb 0.00 in0.0 mm 0.00 in/hr0.0 mm/hr 0.01 in0.3 mm
10:45 AM 34.8°F1.6°C 33.2°F0.7°C 94% 9.0 mph WSW14.5 kmh WSW 24.0 mph38.6 kmh 30.05 in1017.6 mb 0.00 in0.0 mm 0.00 in/hr0.0 mm/hr 0.01 in0.3 mm
10:40 AM 34.8°F1.6°C 33.2°F0.7°C 94% 11.0 mph WSW17.7 kmh WSW 24.0 mph38.6 kmh 30.05 in1017.6 mb 0.00 in0.0 mm 0.00 in/hr0.0 mm/hr 0.01 in0.3 mm
10:35 AM 34.8°F1.6°C 33.2°F0.7°C 94% 11.0 mph WSW17.7 kmh WSW 20.0 mph32.2 kmh 30.05 in1017.6 mb 0.00 in0.0 mm 0.00 in/hr0.0 mm/hr 0.01 in0.3 mm
10:30 AM 34.9°F1.6°C 33.3°F0.7°C 94% 10.0 mph WSW16.1 kmh WSW 21.0 mph33.8 kmh 30.05 in1017.6 mb 0.00 in0.0 mm 0.00 in/hr0.0 mm/hr 0.01 in0.3 mm
10:25 AM 34.8°F1.6°C 33.2°F0.7°C 94% 9.0 mph WSW14.5 kmh WSW 21.0 mph33.8 kmh 30.05 in1017.6 mb 0.00 in0.0 mm 0.00 in/hr0.0 mm/hr 0.01 in0.3 mm
10:20 AM 34.7°F1.5°C 33.2°F0.7°C 94% 8.0 mph WSW12.9 kmh WSW 17.0 mph27.4 kmh 30.05 in1017.6 mb 0.00 in0.0 mm 0.00 in/hr0.0 mm/hr 0.01 in0.3 mm
10:15 AM 34.5°F1.4°C 33.0°F0.6°C 94% 8.0 mph WSW12.9 kmh WSW 17.0 mph27.4 kmh 30.04 in1017.3 mb 0.00 in0.0 mm 0.00 in/hr0.0 mm/hr 0.01 in0.3 mm
10:10 AM 34.4°F1.3°C 32.9°F0.5°C 94% 9.0 mph WSW14.5 kmh WSW 18.0 mph29.0 kmh 30.04 in1017.3 mb 0.00 in0.0 mm 0.00 in/hr0.0 mm/hr 0.01 in0.3 mm
10:05 AM 34.4°F1.3°C 32.9°F0.5°C 94% 9.0 mph WSW14.5 kmh WSW 18.0 mph29.0 kmh 30.04 in1017.3 mb 0.00 in0.0 mm 0.00 in/hr0.0 mm/hr 0.01 in0.3 mm
10:00 AM 34.3°F1.3°C 32.8°F0.4°C 94% 8.0 mph WSW12.9 kmh WSW 19.0 mph30.6 kmh 30.04 in1017.3 mb 0.01 in0.3 mm 0.00 in/hr0.0 mm/hr 0.01 in0.3 mm
09:55 AM 34.1°F1.2°C 32.6°F0.3°C 94% 8.0 mph WSW12.9 kmh WSW 19.0 mph30.6 kmh 30.04 in1017.3 mb 0.01 in0.3 mm 0.00 in/hr0.0 mm/hr 0.01 in0.3 mm
09:50 AM 34.0°F1.1°C 32.5°F0.3°C 94% 9.0 mph WSW14.5 kmh WSW 20.0 mph32.2 kmh 30.04 in1017.3 mb 0.01 in0.3 mm 0.00 in/hr0.0 mm/hr 0.01 in0.3 mm
09:45 AM 33.9°F1.1°C 32.4°F0.2°C 94% 9.0 mph WSW14.5 kmh WSW 20.0 mph32.2 kmh 30.04 in1017.3 mb 0.01 in0.3 mm 0.00 in/hr0.0 mm/hr 0.01 in0.3 mm
09:40 AM 33.8°F1.0°C 32.3°F0.2°C 94% 8.0 mph WSW12.9 kmh WSW 18.0 mph29.0 kmh 30.03 in1016.9 mb 0.01 in0.3 mm 0.00 in/hr0.0 mm/hr 0.01 in0.3 mm
09:35 AM 33.7°F0.9°C 32.2°F0.1°C 94% 8.0 mph WSW12.9 kmh WSW 17.0 mph27.4 kmh 30.04 in1017.3 mb 0.01 in0.3 mm 0.00 in/hr0.0 mm/hr 0.01 in0.3 mm
09:30 AM 33.6°F0.9°C 32.1°F0.1°C 94% 7.0 mph WSW11.3 kmh WSW 20.0 mph32.2 kmh 30.04 in1017.3 mb 0.01 in0.3 mm 0.00 in/hr0.0 mm/hr 0.01 in0.3 mm
09:25 AM 33.5°F0.8°C 32.0°F0.0°C 94% 7.0 mph WSW11.3 kmh WSW 20.0 mph32.2 kmh 30.04 in1017.3 mb 0.01 in0.3 mm 0.00 in/hr0.0 mm/hr 0.01 in0.3 mm
09:20 AM 33.5°F0.8°C 32.0°F0.0°C 94% 7.0 mph WSW11.3 kmh WSW 19.0 mph30.6 kmh 30.04 in1017.3 mb 0.01 in0.3 mm 0.00 in/hr0.0 mm/hr 0.01 in0.3 mm
09:15 AM 33.5°F0.8°C 32.0°F0.0°C 94% 7.0 mph WSW11.3 kmh WSW 17.0 mph27.4 kmh 30.04 in1017.3 mb 0.01 in0.3 mm 0.00 in/hr0.0 mm/hr 0.01 in0.3 mm
09:10 AM 33.5°F0.8°C 32.0°F0.0°C 94% 7.0 mph WSW11.3 kmh WSW 17.0 mph27.4 kmh 30.04 in1017.3 mb 0.01 in0.3 mm 0.00 in/hr0.0 mm/hr 0.01 in0.3 mm
09:05 AM 33.4°F0.8°C 31.9°F-0.1°C 94% 7.0 mph WSW11.3 kmh WSW 19.0 mph30.6 kmh 30.04 in1017.3 mb 0.01 in0.3 mm 0.12 in/hr3.0 mm/hr 0.01 in0.3 mm
09:00 AM 33.4°F0.8°C 31.9°F-0.1°C 94% 8.0 mph WSW12.9 kmh WSW 19.0 mph30.6 kmh 30.03 in1016.9 mb 0.00 in0.0 mm 0.00 in/hr0.0 mm/hr 0.00 in0.0 mm
08:55 AM 33.3°F0.7°C 31.8°F-0.1°C 94% 7.0 mph WSW11.3 kmh WSW 18.0 mph29.0 kmh 30.03 in1016.9 mb 0.00 in0.0 mm 0.00 in/hr0.0 mm/hr 0.00 in0.0 mm
08:50 AM 33.2°F0.7°C 31.7°F-0.2°C 94% 6.0 mph WSW9.7 kmh WSW 15.0 mph24.1 kmh 30.03 in1016.9 mb 0.00 in0.0 mm 0.00 in/hr0.0 mm/hr 0.00 in0.0 mm
08:45 AM 33.2°F0.7°C 31.7°F-0.2°C 94% 6.0 mph WSW9.7 kmh WSW 15.0 mph24.1 kmh 30.03 in1016.9 mb 0.00 in0.0 mm 0.00 in/hr0.0 mm/hr 0.00 in0.0 mm
08:40 AM 33.2°F0.7°C 31.7°F-0.2°C 94% 6.0 mph WSW9.7 kmh WSW 14.0 mph22.5 kmh 30.03 in1016.9 mb 0.00 in0.0 mm 0.00 in/hr0.0 mm/hr 0.00 in0.0 mm
08:35 AM 33.1°F0.6°C 31.3°F-0.4°C 93% 7.0 mph SW11.3 kmh SW 18.0 mph29.0 kmh 30.03 in1016.9 mb 0.00 in0.0 mm 0.00 in/hr0.0 mm/hr 0.00 in0.0 mm
08:30 AM 33.1°F0.6°C 31.3°F-0.4°C 93% 7.0 mph SW11.3 kmh SW 18.0 mph29.0 kmh 30.03 in1016.9 mb 0.00 in0.0 mm 0.00 in/hr0.0 mm/hr 0.00 in0.0 mm
08:25 AM 33.1°F0.6°C 31.3°F-0.4°C 93% 6.0 mph WSW9.7 kmh WSW 17.0 mph27.4 kmh 30.03 in1016.9 mb 0.00 in0.0 mm 0.00 in/hr0.0 mm/hr 0.00 in0.0 mm
08:20 AM 33.0°F0.6°C 31.2°F-0.4°C 93% 6.0 mph WSW9.7 kmh WSW 17.0 mph27.4 kmh 30.03 in1016.9 mb 0.00 in0.0 mm 0.00 in/hr0.0 mm/hr 0.00 in0.0 mm
08:15 AM 33.0°F0.6°C 31.2°F-0.4°C 93% 5.0 mph WSW8.0 kmh WSW 13.0 mph20.9 kmh 30.03 in1016.9 mb 0.00 in0.0 mm 0.00 in/hr0.0 mm/hr 0.00 in0.0 mm
08:10 AM 33.0°F0.6°C 31.2°F-0.4°C 93% 6.0 mph WSW9.7 kmh WSW 17.0 mph27.4 kmh 30.03 in1016.9 mb 0.00 in0.0 mm 0.00 in/hr0.0 mm/hr 0.00 in0.0 mm
08:05 AM 32.9°F0.5°C 30.8°F-0.7°C 92% 6.0 mph WSW9.7 kmh WSW 17.0 mph27.4 kmh 30.03 in1016.9 mb 0.00 in0.0 mm 0.00 in/hr0.0 mm/hr 0.00 in0.0 mm
08:00 AM 32.9°F0.5°C 30.8°F-0.7°C 92% 5.0 mph WSW8.0 kmh WSW 15.0 mph24.1 kmh 30.03 in1016.9 mb 0.00 in0.0 mm 0.00 in/hr0.0 mm/hr 0.00 in0.0 mm
07:55 AM 33.0°F0.6°C 30.9°F-0.6°C 92% 5.0 mph WSW8.0 kmh WSW 15.0 mph24.1 kmh 30.02 in1016.6 mb 0.00 in0.0 mm 0.00 in/hr0.0 mm/hr 0.00 in0.0 mm
07:50 AM 33.0°F0.6°C 30.9°F-0.6°C 92% 5.0 mph SW8.0 kmh SW 12.0 mph19.3 kmh 30.02 in1016.6 mb 0.00 in0.0 mm 0.00 in/hr0.0 mm/hr 0.00 in0.0 mm
07:45 AM 33.1°F0.6°C 31.0°F-0.6°C 92% 6.0 mph SW9.7 kmh SW 12.0 mph19.3 kmh 30.02 in1016.6 mb 0.00 in0.0 mm 0.00 in/hr0.0 mm/hr 0.00 in0.0 mm
07:40 AM 33.2°F0.7°C 30.9°F-0.6°C 91% 7.0 mph WSW11.3 kmh WSW 16.0 mph25.7 kmh 30.02 in1016.6 mb 0.00 in0.0 mm 0.00 in/hr0.0 mm/hr 0.00 in0.0 mm
07:35 AM 33.3°F0.7°C 31.0°F-0.6°C 91% 7.0 mph WSW11.3 kmh WSW 17.0 mph27.4 kmh 30.02 in1016.6 mb 0.00 in0.0 mm 0.00 in/hr0.0 mm/hr 0.00 in0.0 mm
07:30 AM 33.3°F0.7°C 31.0°F-0.6°C 91% 7.0 mph WSW11.3 kmh WSW 17.0 mph27.4 kmh 30.02 in1016.6 mb 0.00 in0.0 mm 0.00 in/hr0.0 mm/hr 0.00 in0.0 mm
07:25 AM 33.3°F0.7°C 30.7°F-0.7°C 90% 8.0 mph WSW12.9 kmh WSW 16.0 mph25.7 kmh 30.02 in1016.6 mb 0.00 in0.0 mm 0.00 in/hr0.0 mm/hr 0.00 in0.0 mm
07:20 AM 33.4°F0.8°C 30.8°F-0.7°C 90% 7.0 mph WSW11.3 kmh WSW 15.0 mph24.1 kmh 30.02 in1016.6 mb 0.00 in0.0 mm 0.00 in/hr0.0 mm/hr 0.00 in0.0 mm
07:15 AM 33.4°F0.8°C 30.5°F-0.8°C 89% 7.0 mph WSW11.3 kmh WSW 15.0 mph24.1 kmh 30.02 in1016.6 mb 0.00 in0.0 mm 0.00 in/hr0.0 mm/hr 0.00 in0.0 mm
07:10 AM 33.4°F0.8°C 30.5°F-0.8°C 89% 6.0 mph WSW9.7 kmh WSW 15.0 mph24.1 kmh 30.02 in1016.6 mb 0.00 in0.0 mm 0.00 in/hr0.0 mm/hr 0.00 in0.0 mm
07:05 AM 33.4°F0.8°C 30.5°F-0.8°C 89% 6.0 mph WSW9.7 kmh WSW 14.0 mph22.5 kmh 30.02 in1016.6 mb 0.00 in0.0 mm 0.00 in/hr0.0 mm/hr 0.00 in0.0 mm
07:00 AM 33.4°F0.8°C 30.5°F-0.8°C 89% 6.0 mph WSW9.7 kmh WSW 14.0 mph22.5 kmh 30.02 in1016.6 mb 0.00 in0.0 mm 0.00 in/hr0.0 mm/hr 0.00 in0.0 mm
06:55 AM 33.4°F0.8°C 30.2°F-1.0°C 88% 5.0 mph WSW8.0 kmh WSW 13.0 mph20.9 kmh 30.02 in1016.6 mb 0.00 in0.0 mm 0.00 in/hr0.0 mm/hr 0.00 in0.0 mm
06:50 AM 33.4°F0.8°C 30.2°F-1.0°C 88% 5.0 mph SW8.0 kmh SW 16.0 mph25.7 kmh 30.02 in1016.6 mb 0.00 in0.0 mm 0.00 in/hr0.0 mm/hr 0.00 in0.0 mm
06:45 AM 33.4°F0.8°C 30.2°F-1.0°C 88% 6.0 mph SW9.7 kmh SW 16.0 mph25.7 kmh 30.02 in1016.6 mb 0.00 in0.0 mm 0.00 in/hr0.0 mm/hr 0.00 in0.0 mm
06:40 AM 33.4°F0.8°C 30.2°F-1.0°C 88% 6.0 mph WSW9.7 kmh WSW 15.0 mph24.1 kmh 30.02 in1016.6 mb 0.00 in0.0 mm 0.00 in/hr0.0 mm/hr 0.00 in0.0 mm
06:35 AM 33.5°F0.8°C 30.3°F-0.9°C 88% 6.0 mph WSW9.7 kmh WSW 13.0 mph20.9 kmh 30.01 in1016.3 mb 0.00 in0.0 mm 0.00 in/hr0.0 mm/hr 0.00 in0.0 mm
06:30 AM 33.6°F0.9°C 30.4°F-0.9°C 88% 7.0 mph SW11.3 kmh SW 14.0 mph22.5 kmh 30.01 in1016.3 mb 0.00 in0.0 mm 0.00 in/hr0.0 mm/hr 0.00 in0.0 mm
06:25 AM 33.6°F0.9°C 30.4°F-0.9°C 88% 8.0 mph SW12.9 kmh SW 15.0 mph24.1 kmh 30.01 in1016.3 mb 0.00 in0.0 mm 0.00 in/hr0.0 mm/hr 0.00 in0.0 mm
06:20 AM 33.7°F0.9°C 30.2°F-1.0°C 87% 8.0 mph WSW12.9 kmh WSW 17.0 mph27.4 kmh 30.01 in1016.3 mb 0.00 in0.0 mm 0.00 in/hr0.0 mm/hr 0.00 in0.0 mm
06:15 AM 33.7°F0.9°C 30.2°F-1.0°C 87% 8.0 mph WSW12.9 kmh WSW 19.0 mph30.6 kmh 30.01 in1016.3 mb 0.00 in0.0 mm 0.00 in/hr0.0 mm/hr 0.00 in0.0 mm
06:10 AM 33.7°F0.9°C 30.2°F-1.0°C 87% 8.0 mph SW12.9 kmh SW 19.0 mph30.6 kmh 30.01 in1016.3 mb 0.00 in0.0 mm 0.00 in/hr0.0 mm/hr 0.00 in0.0 mm
06:05 AM 33.7°F0.9°C 30.2°F-1.0°C 87% 6.0 mph SW9.7 kmh SW 17.0 mph27.4 kmh 30.01 in1016.3 mb 0.00 in0.0 mm 0.00 in/hr0.0 mm/hr 0.00 in0.0 mm
06:00 AM 33.8°F1.0°C 30.3°F-0.9°C 87% 7.0 mph SW11.3 kmh SW 14.0 mph22.5 kmh 30.01 in1016.3 mb 0.00 in0.0 mm 0.00 in/hr0.0 mm/hr 0.00 in0.0 mm
05:55 AM 33.8°F1.0°C 30.3°F-0.9°C 87% 7.0 mph SW11.3 kmh SW 18.0 mph29.0 kmh 30.01 in1016.3 mb 0.00 in0.0 mm 0.00 in/hr0.0 mm/hr 0.00 in0.0 mm
05:50 AM 33.8°F1.0°C 30.3°F-0.9°C 87% 7.0 mph WSW11.3 kmh WSW 18.0 mph29.0 kmh 30.01 in1016.3 mb 0.00 in0.0 mm 0.00 in/hr0.0 mm/hr 0.00 in0.0 mm
05:45 AM 33.8°F1.0°C 30.3°F-0.9°C 87% 8.0 mph SW12.9 kmh SW 16.0 mph25.7 kmh 30.01 in1016.3 mb 0.00 in0.0 mm 0.00 in/hr0.0 mm/hr 0.00 in0.0 mm
05:40 AM 33.7°F0.9°C 30.2°F-1.0°C 87% 7.0 mph SW11.3 kmh SW 16.0 mph25.7 kmh 30.01 in1016.3 mb 0.00 in0.0 mm 0.00 in/hr0.0 mm/hr 0.00 in0.0 mm
05:35 AM 33.7°F0.9°C 30.2°F-1.0°C 87% 7.0 mph SW11.3 kmh SW 15.0 mph24.1 kmh 30.01 in1016.3 mb 0.00 in0.0 mm 0.00 in/hr0.0 mm/hr 0.00 in0.0 mm
05:30 AM 33.7°F0.9°C 30.2°F-1.0°C 87% 6.0 mph SW9.7 kmh SW 15.0 mph24.1 kmh 30.01 in1016.3 mb 0.00 in0.0 mm 0.00 in/hr0.0 mm/hr 0.00 in0.0 mm
05:25 AM 33.6°F0.9°C 30.1°F-1.1°C 87% 4.0 mph SW6.4 kmh SW 11.0 mph17.7 kmh 30.01 in1016.3 mb 0.00 in0.0 mm 0.00 in/hr0.0 mm/hr 0.00 in0.0 mm
05:20 AM 33.7°F0.9°C 30.2°F-1.0°C 87% 3.0 mph SW4.8 kmh SW 10.0 mph16.1 kmh 30.01 in1016.3 mb 0.00 in0.0 mm 0.00 in/hr0.0 mm/hr 0.00 in0.0 mm
05:15 AM 33.7°F0.9°C 30.2°F-1.0°C 87% 3.0 mph SW4.8 kmh SW 9.0 mph14.5 kmh 30.01 in1016.3 mb 0.00 in0.0 mm 0.00 in/hr0.0 mm/hr 0.00 in0.0 mm
05:10 AM 33.8°F1.0°C 30.3°F-0.9°C 87% 3.0 mph SW4.8 kmh SW 9.0 mph14.5 kmh 30.01 in1016.3 mb 0.00 in0.0 mm 0.00 in/hr0.0 mm/hr 0.00 in0.0 mm
05:05 AM 34.0°F1.1°C 30.3°F-0.9°C 86% 3.0 mph SW4.8 kmh SW 9.0 mph14.5 kmh 30.01 in1016.3 mb 0.00 in0.0 mm 0.00 in/hr0.0 mm/hr 0.00 in0.0 mm
05:00 AM 34.1°F1.2°C 30.4°F-0.9°C 86% 3.0 mph SW4.8 kmh SW 10.0 mph16.1 kmh 30.00 in1015.9 mb 0.00 in0.0 mm 0.00 in/hr0.0 mm/hr 0.00 in0.0 mm
04:55 AM 34.3°F1.3°C 30.3°F-0.9°C 85% 4.0 mph SW6.4 kmh SW 11.0 mph17.7 kmh 30.00 in1015.9 mb 0.00 in0.0 mm 0.00 in/hr0.0 mm/hr 0.00 in0.0 mm
04:50 AM 34.4°F1.3°C 30.4°F-0.9°C 85% 5.0 mph WSW8.0 kmh WSW 11.0 mph17.7 kmh 30.00 in1015.9 mb 0.00 in0.0 mm 0.00 in/hr0.0 mm/hr 0.00 in0.0 mm
04:45 AM 34.4°F1.3°C 30.1°F-1.1°C 84% 7.0 mph WSW11.3 kmh WSW 17.0 mph27.4 kmh 30.00 in1015.9 mb 0.00 in0.0 mm 0.00 in/hr0.0 mm/hr 0.00 in0.0 mm
04:40 AM 34.4°F1.3°C 29.8°F-1.2°C 83% 8.0 mph WSW12.9 kmh WSW 18.0 mph29.0 kmh 30.00 in1015.9 mb 0.00 in0.0 mm 0.00 in/hr0.0 mm/hr 0.00 in0.0 mm
04:35 AM 34.4°F1.3°C 29.5°F-1.4°C 82% 8.0 mph WSW12.9 kmh WSW 18.0 mph29.0 kmh 30.00 in1015.9 mb 0.00 in0.0 mm 0.00 in/hr0.0 mm/hr 0.00 in0.0 mm
04:30 AM 34.4°F1.3°C 29.2°F-1.6°C 81% 6.0 mph SW9.7 kmh SW 14.0 mph22.5 kmh 30.00 in1015.9 mb 0.00 in0.0 mm 0.00 in/hr0.0 mm/hr 0.00 in0.0 mm
04:25 AM 34.4°F1.3°C 28.9°F-1.7°C 80% 5.0 mph SW8.0 kmh SW 14.0 mph22.5 kmh 29.99 in1015.6 mb 0.00 in0.0 mm 0.00 in/hr0.0 mm/hr 0.00 in0.0 mm
04:20 AM 34.4°F1.3°C 28.9°F-1.7°C 80% 6.0 mph SW9.7 kmh SW 15.0 mph24.1 kmh 29.99 in1015.6 mb 0.00 in0.0 mm 0.00 in/hr0.0 mm/hr 0.00 in0.0 mm
04:15 AM 34.4°F1.3°C 28.9°F-1.7°C 80% 7.0 mph WSW11.3 kmh WSW 15.0 mph24.1 kmh 29.99 in1015.6 mb 0.00 in0.0 mm 0.00 in/hr0.0 mm/hr 0.00 in0.0 mm
04:10 AM 34.4°F1.3°C 28.9°F-1.7°C 80% 6.0 mph WSW9.7 kmh WSW 15.0 mph24.1 kmh 29.99 in1015.6 mb 0.00 in0.0 mm 0.00 in/hr0.0 mm/hr 0.00 in0.0 mm
04:05 AM 34.4°F1.3°C 28.9°F-1.7°C 80% 7.0 mph WSW11.3 kmh WSW 15.0 mph24.1 kmh 29.99 in1015.6 mb 0.00 in0.0 mm 0.00 in/hr0.0 mm/hr 0.00 in0.0 mm
04:00 AM 34.4°F1.3°C 28.9°F-1.7°C 80% 7.0 mph WSW11.3 kmh WSW 15.0 mph24.1 kmh 29.99 in1015.6 mb 0.00 in0.0 mm 0.00 in/hr0.0 mm/hr 0.00 in0.0 mm
03:55 AM 34.4°F1.3°C 28.9°F-1.7°C 80% 6.0 mph WSW9.7 kmh WSW 14.0 mph22.5 kmh 29.98 in1015.2 mb 0.00 in0.0 mm 0.00 in/hr0.0 mm/hr 0.00 in0.0 mm
03:50 AM 34.5°F1.4°C 29.0°F-1.7°C 80% 6.0 mph WSW9.7 kmh WSW 14.0 mph22.5 kmh 29.99 in1015.6 mb 0.00 in0.0 mm 0.00 in/hr0.0 mm/hr 0.00 in0.0 mm
03:45 AM 34.7°F1.5°C 29.2°F-1.6°C 80% 5.0 mph WSW8.0 kmh WSW 12.0 mph19.3 kmh 29.98 in1015.2 mb 0.00 in0.0 mm 0.00 in/hr0.0 mm/hr 0.00 in0.0 mm
03:40 AM 34.7°F1.5°C 29.2°F-1.6°C 80% 6.0 mph WSW9.7 kmh WSW 15.0 mph24.1 kmh 29.98 in1015.2 mb 0.00 in0.0 mm 0.00 in/hr0.0 mm/hr 0.00 in0.0 mm
03:35 AM 34.7°F1.5°C 29.2°F-1.6°C 80% 7.0 mph WSW11.3 kmh WSW 15.0 mph24.1 kmh 29.98 in1015.2 mb 0.00 in0.0 mm 0.00 in/hr0.0 mm/hr 0.00 in0.0 mm
03:30 AM 34.7°F1.5°C 29.2°F-1.6°C 80% 6.0 mph WSW9.7 kmh WSW 14.0 mph22.5 kmh 29.98 in1015.2 mb 0.00 in0.0 mm 0.00 in/hr0.0 mm/hr 0.00 in0.0 mm
03:25 AM 34.6°F1.4°C 29.1°F-1.6°C 80% 6.0 mph WSW9.7 kmh WSW 14.0 mph22.5 kmh 29.98 in1015.2 mb 0.00 in0.0 mm 0.00 in/hr0.0 mm/hr 0.00 in0.0 mm
03:20 AM 34.6°F1.4°C 29.1°F-1.6°C 80% 5.0 mph SW8.0 kmh SW 12.0 mph19.3 kmh 29.98 in1015.2 mb 0.00 in0.0 mm 0.00 in/hr0.0 mm/hr 0.00 in0.0 mm
03:15 AM 34.6°F1.4°C 29.4°F-1.4°C 81% 6.0 mph SW9.7 kmh SW 14.0 mph22.5 kmh 29.98 in1015.2 mb 0.00 in0.0 mm 0.00 in/hr0.0 mm/hr 0.00 in0.0 mm
03:10 AM 34.6°F1.4°C 29.4°F-1.4°C 81% 6.0 mph SW9.7 kmh SW 14.0 mph22.5 kmh 29.98 in1015.2 mb 0.00 in0.0 mm 0.00 in/hr0.0 mm/hr 0.00 in0.0 mm
03:05 AM 34.6°F1.4°C 29.4°F-1.4°C 81% 5.0 mph SW8.0 kmh SW 14.0 mph22.5 kmh 29.98 in1015.2 mb 0.00 in0.0 mm 0.00 in/hr0.0 mm/hr 0.00 in0.0 mm
03:00 AM 34.6°F1.4°C 29.4°F-1.4°C 81% 4.0 mph SW6.4 kmh SW 14.0 mph22.5 kmh 29.98 in1015.2 mb 0.00 in0.0 mm 0.00 in/hr0.0 mm/hr 0.00 in0.0 mm
02:55 AM 34.6°F1.4°C 29.4°F-1.4°C 81% 4.0 mph WSW6.4 kmh WSW 12.0 mph19.3 kmh 29.98 in1015.2 mb 0.00 in0.0 mm 0.00 in/hr0.0 mm/hr 0.00 in0.0 mm
02:50 AM 34.5°F1.4°C 29.3°F-1.5°C 81% 5.0 mph WSW8.0 kmh WSW 12.0 mph19.3 kmh 29.98 in1015.2 mb 0.00 in0.0 mm 0.00 in/hr0.0 mm/hr 0.00 in0.0 mm
02:45 AM 34.4°F1.3°C 29.2°F-1.6°C 81% 5.0 mph WSW8.0 kmh WSW 15.0 mph24.1 kmh 29.98 in1015.2 mb 0.00 in0.0 mm 0.00 in/hr0.0 mm/hr 0.00 in0.0 mm
02:40 AM 34.4°F1.3°C 29.5°F-1.4°C 82% 5.0 mph WSW8.0 kmh WSW 15.0 mph24.1 kmh 29.98 in1015.2 mb 0.00 in0.0 mm 0.00 in/hr0.0 mm/hr 0.00 in0.0 mm
02:35 AM 34.4°F1.3°C 29.5°F-1.4°C 82% 4.0 mph WSW6.4 kmh WSW 13.0 mph20.9 kmh 29.98 in1015.2 mb 0.00 in0.0 mm 0.00 in/hr0.0 mm/hr 0.00 in0.0 mm
02:30 AM 34.4°F1.3°C 29.5°F-1.4°C 82% 3.0 mph WSW4.8 kmh WSW 12.0 mph19.3 kmh 29.98 in1015.2 mb 0.00 in0.0 mm 0.00 in/hr0.0 mm/hr 0.00 in0.0 mm
02:25 AM 34.4°F1.3°C 29.5°F-1.4°C 82% 4.0 mph WSW6.4 kmh WSW 11.0 mph17.7 kmh 29.98 in1015.2 mb 0.00 in0.0 mm 0.00 in/hr0.0 mm/hr 0.00 in0.0 mm
02:20 AM 34.4°F1.3°C 29.5°F-1.4°C 82% 4.0 mph WSW6.4 kmh WSW 11.0 mph17.7 kmh 29.97 in1014.9 mb 0.00 in0.0 mm 0.00 in/hr0.0 mm/hr 0.00 in0.0 mm
02:15 AM 34.4°F1.3°C 29.5°F-1.4°C 82% 3.0 mph WSW4.8 kmh WSW 9.0 mph14.5 kmh 29.97 in1014.9 mb 0.00 in0.0 mm 0.00 in/hr0.0 mm/hr 0.00 in0.0 mm
02:10 AM 34.4°F1.3°C 29.8°F-1.2°C 83% 3.0 mph WSW4.8 kmh WSW 10.0 mph16.1 kmh 29.97 in1014.9 mb 0.00 in0.0 mm 0.00 in/hr0.0 mm/hr 0.00 in0.0 mm
02:05 AM 34.3°F1.3°C 29.7°F-1.3°C 83% 4.0 mph WSW6.4 kmh WSW 12.0 mph19.3 kmh 29.97 in1014.9 mb 0.00 in0.0 mm 0.00 in/hr0.0 mm/hr 0.00 in0.0 mm
02:00 AM 34.3°F1.3°C 29.7°F-1.3°C 83% 4.0 mph SW6.4 kmh SW 12.0 mph19.3 kmh 29.97 in1014.9 mb 0.00 in0.0 mm 0.00 in/hr0.0 mm/hr 0.00 in0.0 mm
01:55 AM 34.2°F1.2°C 29.6°F-1.3°C 83% 4.0 mph SW6.4 kmh SW 12.0 mph19.3 kmh 29.97 in1014.9 mb 0.00 in0.0 mm 0.00 in/hr0.0 mm/hr 0.00 in0.0 mm
01:50 AM 34.1°F1.2°C 29.5°F-1.4°C 83% 4.0 mph SW6.4 kmh SW 12.0 mph19.3 kmh 29.97 in1014.9 mb 0.00 in0.0 mm 0.00 in/hr0.0 mm/hr 0.00 in0.0 mm
01:45 AM 34.1°F1.2°C 29.5°F-1.4°C 83% 4.0 mph SW6.4 kmh SW 10.0 mph16.1 kmh 29.97 in1014.9 mb 0.00 in0.0 mm 0.00 in/hr0.0 mm/hr 0.00 in0.0 mm
01:40 AM 34.1°F1.2°C 29.5°F-1.4°C 83% 5.0 mph SW8.0 kmh SW 12.0 mph19.3 kmh 29.97 in1014.9 mb 0.00 in0.0 mm 0.00 in/hr0.0 mm/hr 0.00 in0.0 mm
01:35 AM 34.1°F1.2°C 29.5°F-1.4°C 83% 5.0 mph WSW8.0 kmh WSW 13.0 mph20.9 kmh 29.97 in1014.9 mb 0.00 in0.0 mm 0.00 in/hr0.0 mm/hr 0.00 in0.0 mm
01:30 AM 34.1°F1.2°C 29.5°F-1.4°C 83% 5.0 mph WSW8.0 kmh WSW 15.0 mph24.1 kmh 29.97 in1014.9 mb 0.00 in0.0 mm 0.00 in/hr0.0 mm/hr 0.00 in0.0 mm
01:25 AM 34.1°F1.2°C 29.2°F-1.6°C 82% 4.0 mph WSW6.4 kmh WSW 15.0 mph24.1 kmh 29.97 in1014.9 mb 0.00 in0.0 mm 0.00 in/hr0.0 mm/hr 0.00 in0.0 mm
01:20 AM 34.2°F1.2°C 29.3°F-1.5°C 82% 4.0 mph WSW6.4 kmh WSW 12.0 mph19.3 kmh 29.97 in1014.9 mb 0.00 in0.0 mm 0.00 in/hr0.0 mm/hr 0.00 in0.0 mm
01:15 AM 34.3°F1.3°C 29.4°F-1.4°C 82% 4.0 mph WSW6.4 kmh WSW 10.0 mph16.1 kmh 29.96 in1014.6 mb 0.00 in0.0 mm 0.00 in/hr0.0 mm/hr 0.00 in0.0 mm
01:10 AM 34.4°F1.3°C 29.5°F-1.4°C 82% 4.0 mph WSW6.4 kmh WSW 14.0 mph22.5 kmh 29.96 in1014.6 mb 0.00 in0.0 mm 0.00 in/hr0.0 mm/hr 0.00 in0.0 mm
01:05 AM 34.4°F1.3°C 29.5°F-1.4°C 82% 4.0 mph SW6.4 kmh SW 14.0 mph22.5 kmh 29.96 in1014.6 mb 0.00 in0.0 mm 0.00 in/hr0.0 mm/hr 0.00 in0.0 mm
01:00 AM 34.4°F1.3°C 29.5°F-1.4°C 82% 3.0 mph SW4.8 kmh SW 10.0 mph16.1 kmh 29.96 in1014.6 mb 0.00 in0.0 mm 0.00 in/hr0.0 mm/hr 0.00 in0.0 mm
12:55 AM 34.6°F1.4°C 29.4°F-1.4°C 81% 3.0 mph SW4.8 kmh SW 10.0 mph16.1 kmh 29.96 in1014.6 mb 0.00 in0.0 mm 0.00 in/hr0.0 mm/hr 0.00 in0.0 mm
12:50 AM 34.7°F1.5°C 29.8°F-1.2°C 82% 4.0 mph WSW6.4 kmh WSW 12.0 mph19.3 kmh 29.96 in1014.6 mb 0.00 in0.0 mm 0.00 in/hr0.0 mm/hr 0.00 in0.0 mm
12:45 AM 34.7°F1.5°C 29.8°F-1.2°C 82% 4.0 mph WSW6.4 kmh WSW 12.0 mph19.3 kmh 29.96 in1014.6 mb 0.00 in0.0 mm 0.00 in/hr0.0 mm/hr 0.00 in0.0 mm
12:40 AM 34.7°F1.5°C 29.8°F-1.2°C 82% 3.0 mph WSW4.8 kmh WSW 12.0 mph19.3 kmh 29.96 in1014.6 mb 0.00 in0.0 mm 0.00 in/hr0.0 mm/hr 0.00 in0.0 mm
12:35 AM 34.5°F1.4°C 29.6°F-1.3°C 82% 3.0 mph WSW4.8 kmh WSW 12.0 mph19.3 kmh 29.96 in1014.6 mb 0.00 in0.0 mm 0.00 in/hr0.0 mm/hr 0.00 in0.0 mm
12:30 AM 34.4°F1.3°C 29.8°F-1.2°C 83% 4.0 mph WSW6.4 kmh WSW 11.0 mph17.7 kmh 29.96 in1014.6 mb 0.00 in0.0 mm 0.00 in/hr0.0 mm/hr 0.00 in0.0 mm
12:25 AM 34.4°F1.3°C 29.8°F-1.2°C 83% 5.0 mph WSW8.0 kmh WSW 11.0 mph17.7 kmh 29.96 in1014.6 mb 0.00 in0.0 mm 0.00 in/hr0.0 mm/hr 0.00 in0.0 mm
12:20 AM 34.4°F1.3°C 29.8°F-1.2°C 83% 5.0 mph WSW8.0 kmh WSW 11.0 mph17.7 kmh 29.96 in1014.6 mb 0.00 in0.0 mm 0.00 in/hr0.0 mm/hr 0.00 in0.0 mm
12:15 AM 34.4°F1.3°C 29.8°F-1.2°C 83% 4.0 mph WSW6.4 kmh WSW 11.0 mph17.7 kmh 29.96 in1014.6 mb 0.00 in0.0 mm 0.00 in/hr0.0 mm/hr 0.00 in0.0 mm
12:10 AM 34.4°F1.3°C 29.8°F-1.2°C 83% 3.0 mph WSW4.8 kmh WSW 7.0 mph11.3 kmh 29.96 in1014.6 mb 0.00 in0.0 mm 0.00 in/hr0.0 mm/hr 0.00 in0.0 mm
12:05 AM 34.4°F1.3°C 29.8°F-1.2°C 83% 3.0 mph WSW4.8 kmh WSW 9.0 mph14.5 kmh 29.96 in1014.6 mb 0.00 in0.0 mm 0.00 in/hr0.0 mm/hr 0.00 in0.0 mm
12:00 AM 34.4°F1.3°C 29.8°F-1.2°C 83% 3.0 mph WSW4.8 kmh WSW 9.0 mph14.5 kmh 29.96 in1014.6 mb 0.00 in0.0 mm 0.00 in/hr0.0 mm/hr 0.00 in0.0 mm